Washington, DC (20522)

8:18 AM EDT on May 03, 2015 (GMT -0400)
highgate-roslyn | | Change Station
CLOSE
Current Station
Personal Weather Station
Location: Arlington, VA
Elevation: 180 ft
Nearby Weather Stations

Elev 180 ft 38.90 °N, 77.07 °W | Updated 1 minute ago

Partly Cloudy
Partly Cloudy
58.1 °F
Feels Like 58.1 °F
N
0.0
Wind Variable Wind from SSW
Gusts 0.0 mph

Today
High -- | Low -- °F
--% Chance of Precip.
Yesterday
High -- | Low -- °F
Precip. -- in
6:08 AM 8:02 PM
Full, 100% visible
Pressure 30.11 in
Visibility 10.0 miles
Clouds Few 5500 ft
Scattered Clouds 10000 ft
Dew Point 45 °F
Humidity 61%
Rainfall 0.00 in
Snow Depth Not available.
UV 1.0 out of 12
Pollen 10.20 out of 12
Air Quality Not available.
Flu Activity Sporadic
METAR KDCA 031152Z 00000KT 10SM FEW055 SCT100 17/08 A3011 RMK AO2 SLP195 T01670083 10167 20133 53020

More Conditions Fewer Conditions

Pressure 30.11 in
Visibility 10.0 miles
Clouds Few 5500 ft
Scattered Clouds 10000 ft
Dew Point 45 °F
Humidity 61%
Rainfall 0.00 in
Snow Depth Not available.
UV 1.0 out of 12
Pollen 10.20 out of 12
Air Quality Not available.
Flu Activity Sporadic
METAR KDCA 031152Z 00000KT 10SM FEW055 SCT100 17/08 A3011 RMK AO2 SLP195 T01670083 10167 20133 53020

More Conditions Fewer Conditions

Nepal has a long way to go to dig out and rebuild from a devastating earthquake. We have teamed up with several charities and organizations to make contributing to the relief effort as easy as possible.
How you can help: Portlight Strategies | Red Cross

10-Day Weather Forecast

Almanac

Astronomy

May. 03, 2015 Rise Set
Actual Time
Civil Twilight
Nautical Twilight
Astronomical Twilight
Moon
Length of Visible Light
Length of Day
Tomorrow will be .
, % of the Moon is Illuminated

Today's Extremes

State Highs State Lows

Community

WunderPhotos

Upload Photos

1,818,197 photos uploaded!

WunderBlogs® & News

Nearby

Air Quality

  Air Quality AQ Index Pollutant
Not available.

Snow Depth

Station Depth Elevation

Earthquake Activity

City Distance Mag. Time & Date
Minimum magnitude displayed is 2.5.

Coastal Water Temperatures

Place Temperature

Stations

Nearby Weather Stations

Station Location Temp. Windchill Dew Point Humidity Wind Precip. Elev Updated Type